createdAt,value
2023-02-03T00:04:37.203Z,7.8
2023-02-03T00:14:39.121Z,7.8
2023-02-03T00:24:40.997Z,7.8
2023-02-03T00:44:43.575Z,7.9
2023-02-03T00:54:45.008Z,7.9
2023-02-03T01:34:51.384Z,8
2023-02-03T02:04:55.192Z,8
2023-02-03T02:14:56.523Z,8
2023-02-03T02:24:57.776Z,8
2023-02-03T02:34:59.648Z,8
2023-02-03T02:45:01.156Z,8
2023-02-03T02:55:02.441Z,8
2023-02-03T03:15:05.271Z,7.9
2023-02-03T03:45:10.968Z,8
2023-02-03T04:15:15.665Z,8
2023-02-03T05:05:24.071Z,7.9
2023-02-03T05:15:25.225Z,8
2023-02-03T06:05:34.901Z,8
2023-02-03T06:15:36.372Z,8.1
2023-02-03T06:25:38.121Z,8.1
2023-02-03T06:45:41.182Z,8
2023-02-03T06:55:42.450Z,8.1
2023-02-03T07:05:43.980Z,8.2
2023-02-03T07:15:45.178Z,8.1
2023-02-03T07:25:46.858Z,8.2
2023-02-03T07:35:48.251Z,8.3
2023-02-03T07:45:49.420Z,8.2
2023-02-03T07:55:50.619Z,8.2
2023-02-03T08:05:51.781Z,8.2
2023-02-03T08:15:53.530Z,8.4
2023-02-03T08:25:55.064Z,8.3
2023-02-03T08:35:56.592Z,8.4
2023-02-03T08:45:58.351Z,8.4
2023-02-03T08:55:59.459Z,8.5
2023-02-03T09:06:01.158Z,8.6
2023-02-03T09:16:02.411Z,8.6
2023-02-03T09:36:05.489Z,8.6
2023-02-03T09:46:07.479Z,8.6
2023-02-03T09:56:08.593Z,8.6
2023-02-03T10:06:09.838Z,8.6
2023-02-03T10:16:11.261Z,8.7
2023-02-03T10:36:14.860Z,8.7
2023-02-03T11:26:22.507Z,8.9
2023-02-03T12:36:34.380Z,8.9
2023-02-03T12:37:18.155Z,8.9
2023-02-03T12:56:45.658Z,8.7
2023-02-03T13:26:50.128Z,8
2023-02-03T13:46:52.747Z,8
2023-02-03T14:06:55.185Z,8
2023-02-03T14:26:58.852Z,8.1
2023-02-03T15:27:08.907Z,8
2023-02-03T15:57:13.980Z,7.8
2023-02-03T16:27:19.307Z,7.7
2023-02-03T16:37:20.422Z,7.6
2023-02-03T16:47:21.809Z,7.5
2023-02-03T16:57:23.385Z,7.5
2023-02-03T17:07:24.753Z,7.4
2023-02-03T17:17:26.793Z,7.3
2023-02-03T17:27:27.957Z,7.2
2023-02-03T17:37:29.547Z,7.3
2023-02-03T17:57:33.309Z,7.3
2023-02-03T18:07:34.362Z,7.4
2023-02-03T18:17:35.821Z,7.4
2023-02-03T18:27:36.976Z,7.2
2023-02-03T18:37:38.701Z,7.1
2023-02-03T18:47:40.794Z,7.1
2023-02-03T18:57:42.830Z,7.1
2023-02-03T19:17:46.504Z,6.9
2023-02-03T19:27:48.347Z,6.9
2023-02-03T19:37:49.453Z,6.7
2023-02-03T19:47:51.480Z,6.8
2023-02-03T19:57:52.870Z,6.8
2023-02-03T20:07:54.696Z,6.7
2023-02-03T20:17:56.160Z,6.6
2023-02-03T20:27:57.331Z,6.5
2023-02-03T20:37:58.620Z,6.5
2023-02-03T20:48:00.016Z,6.5
2023-02-03T20:58:01.442Z,6.4
2023-02-03T21:08:03.213Z,6.4
2023-02-03T21:18:04.813Z,6.4
2023-02-03T21:28:06.144Z,6.4
2023-02-03T21:38:07.506Z,6.4
2023-02-03T21:48:09.334Z,6.4
2023-02-03T21:58:10.746Z,6.3
2023-02-03T22:08:12.306Z,6.2
2023-02-03T22:18:14.315Z,6.1
2023-02-03T22:28:15.851Z,6.1
2023-02-03T22:38:17.380Z,6.1
2023-02-03T22:48:19.145Z,6.1
2023-02-03T22:58:20.760Z,5.9
2023-02-03T23:08:22.817Z,5.8
2023-02-03T23:18:24.625Z,5.6
2023-02-03T23:28:25.923Z,5.3
2023-02-03T23:38:27.205Z,5.4
2023-02-03T23:48:28.770Z,5.4
2023-02-03T23:58:30.235Z,5.2
